createdAt,value
2018-04-01T00:01:15.364Z,7.26
2018-04-01T00:03:42.615Z,7.26
2018-04-01T00:06:09.599Z,7.29
2018-04-01T00:08:36.547Z,7.38
2018-04-01T00:11:03.737Z,7.36
2018-04-01T00:13:30.734Z,7.39
2018-04-01T00:15:57.752Z,7.42
2018-04-01T00:18:24.715Z,7.44
2018-04-01T00:20:51.707Z,7.47
2018-04-01T00:23:18.643Z,7.47
2018-04-01T00:25:45.607Z,7.50
2018-04-01T00:28:12.556Z,7.51
2018-04-01T00:30:39.524Z,7.49
2018-04-01T00:33:06.477Z,7.51
2018-04-01T00:35:33.444Z,7.54
2018-04-01T00:38:00.403Z,7.53
2018-04-01T00:40:27.371Z,7.56
2018-04-01T00:42:54.399Z,7.63
2018-04-01T00:45:21.378Z,7.64
2018-04-01T00:47:48.352Z,7.67
2018-04-01T00:50:15.403Z,7.69
2018-04-01T00:52:42.471Z,7.72
2018-04-01T00:55:09.435Z,7.70
2018-04-01T00:57:36.430Z,7.72
2018-04-01T01:00:03.405Z,7.71
2018-04-01T01:02:30.376Z,7.63
2018-04-01T01:04:57.364Z,7.66
2018-04-01T01:07:24.327Z,7.64
2018-04-01T01:09:51.367Z,7.62
2018-04-01T01:12:18.333Z,7.62
2018-04-01T01:14:45.271Z,7.59
2018-04-01T01:17:12.235Z,7.52
2018-04-01T01:19:39.249Z,7.44
2018-04-01T01:22:06.217Z,7.33
2018-04-01T01:24:33.248Z,7.20
2018-04-01T01:27:00.252Z,7.14
2018-04-01T01:29:27.252Z,7.06
2018-04-01T01:31:54.222Z,7.06
2018-04-01T01:34:21.177Z,7.01
2018-04-01T01:36:48.139Z,6.98
2018-04-01T01:39:15.083Z,6.92
2018-04-01T01:41:42.088Z,6.88
2018-04-01T01:44:09.046Z,6.90
2018-04-01T01:46:36.012Z,6.79
2018-04-01T01:49:02.967Z,6.74
2018-04-01T01:51:29.959Z,6.72
2018-04-01T01:53:56.912Z,6.60
2018-04-01T01:56:23.894Z,6.54
2018-04-01T01:58:50.848Z,6.56
2018-04-01T02:01:17.812Z,6.50
2018-04-01T02:03:44.757Z,6.46
2018-04-01T02:06:11.731Z,6.46
2018-04-01T02:08:38.677Z,6.44
2018-04-01T02:11:05.646Z,6.42
2018-04-01T02:13:32.588Z,6.39
2018-04-01T02:15:59.536Z,6.40
2018-04-01T02:18:26.504Z,6.38
2018-04-01T02:20:53.458Z,6.40
2018-04-01T02:23:20.418Z,6.39
2018-04-01T02:25:47.362Z,6.39
2018-04-01T02:28:14.353Z,6.32
2018-04-01T02:30:41.299Z,6.29
2018-04-01T02:33:09.214Z,6.27
2018-04-01T02:35:36.152Z,6.24
2018-04-01T02:38:03.127Z,6.24
2018-04-01T02:40:30.076Z,6.25
2018-04-01T02:42:57.038Z,6.20
2018-04-01T02:45:24.019Z,6.24
2018-04-01T02:47:50.985Z,6.21
2018-04-01T02:50:17.928Z,6.19
2018-04-01T02:52:44.896Z,6.21
2018-04-01T02:55:11.867Z,6.23
2018-04-01T02:57:38.839Z,6.20
2018-04-01T03:00:05.787Z,6.24
2018-04-01T03:02:32.756Z,6.26
2018-04-01T03:04:59.712Z,6.28
2018-04-01T03:07:26.680Z,6.30
2018-04-01T03:09:53.667Z,6.31
2018-04-01T03:12:20.644Z,6.31
2018-04-01T03:14:47.672Z,6.30
2018-04-01T03:17:14.676Z,6.32
2018-04-01T03:19:41.619Z,6.33
2018-04-01T03:22:08.559Z,6.35
2018-04-01T03:24:35.520Z,6.41
2018-04-01T03:27:02.499Z,6.45
2018-04-01T03:29:29.470Z,6.47
2018-04-01T03:31:56.407Z,6.49
2018-04-01T03:34:23.383Z,6.48
2018-04-01T03:36:50.323Z,6.48
2018-04-01T03:39:17.290Z,6.49
2018-04-01T03:41:44.240Z,6.51
2018-04-01T03:44:11.284Z,6.52
2018-04-01T03:46:38.220Z,6.56
2018-04-01T03:49:05.396Z,6.54
2018-04-01T03:51:32.340Z,6.58
2018-04-01T03:53:59.316Z,6.60
2018-04-01T03:56:26.263Z,6.63
2018-04-01T03:58:53.281Z,6.67
2018-04-01T04:01:20.224Z,6.64
2018-04-01T04:03:47.200Z,6.65
2018-04-01T04:06:14.140Z,6.67
2018-04-01T04:08:41.099Z,6.65
2018-04-01T04:11:08.045Z,6.64
2018-04-01T04:13:35.038Z,6.65
2018-04-01T04:16:02.007Z,6.65
2018-04-01T04:18:28.968Z,6.67
2018-04-01T04:20:55.913Z,6.67
2018-04-01T04:23:22.883Z,6.71
2018-04-01T04:25:49.840Z,6.77
2018-04-01T04:28:16.797Z,6.78
2018-04-01T04:30:43.759Z,6.83
2018-04-01T04:33:10.707Z,6.84
2018-04-01T04:35:37.668Z,6.80
2018-04-01T04:38:04.619Z,6.70
2018-04-01T04:40:31.662Z,6.61
2018-04-01T04:42:58.688Z,6.56
2018-04-01T04:45:25.647Z,6.54
2018-04-01T04:47:52.583Z,6.51
2018-04-01T04:50:19.953Z,6.54
2018-04-01T04:52:46.896Z,6.56
2018-04-01T04:55:13.872Z,6.63
2018-04-01T04:57:40.816Z,6.63
2018-04-01T05:00:07.812Z,6.66
2018-04-01T05:02:34.772Z,6.71
2018-04-01T05:05:02.756Z,6.71
2018-04-01T05:07:29.719Z,6.76
2018-04-01T05:09:56.691Z,6.78
2018-04-01T05:12:23.694Z,6.76
2018-04-01T05:14:50.673Z,6.80
2018-04-01T05:17:17.647Z,6.82
2018-04-01T05:19:44.614Z,6.83
2018-04-01T05:22:11.556Z,6.90
2018-04-01T05:24:38.522Z,6.90
2018-04-01T05:27:05.467Z,6.94
2018-04-01T05:29:32.439Z,6.93
2018-04-01T05:31:59.385Z,6.95
2018-04-01T05:34:26.387Z,6.98
2018-04-01T05:36:53.423Z,6.96
2018-04-01T05:39:20.384Z,6.97
2018-04-01T05:41:47.355Z,7.01
2018-04-01T05:44:14.309Z,7.05
2018-04-01T05:46:41.283Z,7.08
2018-04-01T05:49:08.228Z,7.10
2018-04-01T05:51:35.233Z,7.14
2018-04-01T05:54:02.163Z,7.15
2018-04-01T05:56:29.129Z,7.21
2018-04-01T05:58:56.360Z,7.22
2018-04-01T06:01:23.329Z,7.20
2018-04-01T06:03:50.289Z,7.23
2018-04-01T06:06:17.255Z,7.25
2018-04-01T06:08:44.195Z,7.26
2018-04-01T06:11:11.163Z,7.29
2018-04-01T06:13:38.104Z,7.27
2018-04-01T06:16:05.087Z,7.29
2018-04-01T06:18:32.027Z,7.25
2018-04-01T06:20:58.991Z,7.28
2018-04-01T06:23:26.011Z,7.31
2018-04-01T06:25:52.999Z,7.38
2018-04-01T06:28:20.007Z,7.45
2018-04-01T06:30:46.972Z,7.39
2018-04-01T06:33:14.015Z,7.33
2018-04-01T06:35:41.004Z,7.43
2018-04-01T06:38:08.184Z,7.57
2018-04-01T06:40:35.194Z,7.72
2018-04-01T06:43:06.406Z,7.92
2018-04-01T06:45:33.610Z,8.07
2018-04-01T06:48:00.576Z,8.23
2018-04-01T06:50:27.526Z,8.14
2018-04-01T06:52:54.604Z,8.12
2018-04-01T06:55:21.552Z,8.04
2018-04-01T06:57:48.514Z,7.96
2018-04-01T07:00:15.459Z,7.88
2018-04-01T07:02:42.473Z,7.79
2018-04-01T07:05:09.419Z,7.60
2018-04-01T07:07:36.387Z,7.38
2018-04-01T07:10:03.360Z,7.18
2018-04-01T07:12:30.339Z,7.03
2018-04-01T07:14:57.279Z,6.85
2018-04-01T07:17:24.262Z,6.72
2018-04-01T07:19:51.212Z,6.63
2018-04-01T07:22:18.229Z,6.58
2018-04-01T07:24:45.175Z,6.71
2018-04-01T07:27:12.156Z,6.76
2018-04-01T07:29:39.150Z,6.69
2018-04-01T07:32:06.194Z,6.62
2018-04-01T07:34:33.155Z,6.54
2018-04-01T07:37:00.124Z,6.52
2018-04-01T07:39:27.068Z,6.49
2018-04-01T07:41:54.067Z,6.36
2018-04-01T07:44:21.128Z,6.32
2018-04-01T07:46:48.075Z,6.43
2018-04-01T07:49:15.042Z,6.58
2018-04-01T07:51:41.980Z,6.82
2018-04-01T07:54:08.975Z,6.85
2018-04-01T07:56:35.916Z,6.86
2018-04-01T07:59:02.915Z,6.84
2018-04-01T08:01:29.856Z,6.79
2018-04-01T08:03:56.875Z,6.73
2018-04-01T08:06:23.889Z,6.71
2018-04-01T08:08:50.860Z,6.90
2018-04-01T08:11:17.836Z,7.11
2018-04-01T08:13:44.799Z,7.15
2018-04-01T08:16:11.748Z,7.35
2018-04-01T08:18:38.737Z,7.49
2018-04-01T08:21:05.688Z,7.62
2018-04-01T08:23:32.714Z,7.91
2018-04-01T08:25:59.760Z,7.85
2018-04-01T08:28:26.783Z,8.15
2018-04-01T08:30:53.753Z,8.38
2018-04-01T08:33:20.720Z,8.34
2018-04-01T08:35:47.694Z,8.52
2018-04-01T08:38:14.659Z,8.69
2018-04-01T08:40:41.642Z,8.61
2018-04-01T08:43:08.632Z,8.94
2018-04-01T08:45:36.579Z,8.81
2018-04-01T08:48:03.556Z,8.92
2018-04-01T08:50:30.508Z,8.70
2018-04-01T08:52:57.788Z,8.59
2018-04-01T08:55:24.736Z,9.33
2018-04-01T08:57:51.691Z,8.97
2018-04-01T09:00:18.660Z,9.39
2018-04-01T09:02:45.627Z,8.82
2018-04-01T09:05:12.619Z,8.24
2018-04-01T09:07:39.568Z,7.70
2018-04-01T09:10:06.546Z,7.20
2018-04-01T09:12:33.490Z,7.31
2018-04-01T09:15:00.554Z,7.29
2018-04-01T09:17:27.533Z,7.66
2018-04-01T09:19:54.501Z,8.01
2018-04-01T09:22:21.468Z,8.55
2018-04-01T09:24:48.445Z,8.66
2018-04-01T09:27:15.440Z,9.10
2018-04-01T09:29:42.420Z,9.69
2018-04-01T09:32:09.395Z,10.67
2018-04-01T09:34:36.363Z,10.58
2018-04-01T09:37:03.339Z,10.68
2018-04-01T09:39:30.332Z,9.78
2018-04-01T09:41:57.274Z,8.76
2018-04-01T09:44:24.243Z,8.37
2018-04-01T09:46:51.187Z,7.52
2018-04-01T09:49:18.155Z,7.10
2018-04-01T09:51:45.111Z,7.03
2018-04-01T09:54:12.092Z,7.17
2018-04-01T09:56:39.040Z,7.20
2018-04-01T09:59:06.020Z,7.32
2018-04-01T10:01:33.542Z,7.40
2018-04-01T10:04:01.046Z,7.84
2018-04-01T10:06:28.552Z,8.27
2018-04-01T10:08:56.060Z,8.72
2018-04-01T10:11:23.651Z,8.71
2018-04-01T10:13:51.135Z,8.76
2018-04-01T10:16:18.658Z,8.88
2018-04-01T10:18:46.149Z,8.94
2018-04-01T10:21:13.672Z,9.46
2018-04-01T10:23:41.154Z,9.76
2018-04-01T10:26:08.779Z,10.07
2018-04-01T10:28:36.348Z,10.90
2018-04-01T10:31:03.891Z,12.06
2018-04-01T10:33:35.482Z,11.38
2018-04-01T10:36:03.009Z,11.28
2018-04-01T10:38:30.503Z,11.23
2018-04-01T10:40:58.027Z,10.88
2018-04-01T10:43:25.568Z,11.31
2018-04-01T10:45:53.071Z,11.05
2018-04-01T10:48:20.572Z,12.35
2018-04-01T10:50:48.124Z,11.87
2018-04-01T10:53:15.610Z,11.52
2018-04-01T10:55:42.580Z,11.41
2018-04-01T10:58:09.539Z,11.31
2018-04-01T11:00:36.539Z,11.11
2018-04-01T11:03:03.517Z,10.92
2018-04-01T11:05:30.524Z,10.84
2018-04-01T11:07:57.492Z,10.33
2018-04-01T11:10:24.454Z,10.40
2018-04-01T11:12:51.444Z,10.36
2018-04-01T11:15:18.397Z,9.90
2018-04-01T11:17:45.431Z,9.43
2018-04-01T11:20:12.376Z,9.34
2018-04-01T11:22:39.342Z,8.86
2018-04-01T11:25:06.346Z,8.42
2018-04-01T11:27:33.319Z,7.81
2018-04-01T11:30:00.271Z,7.25
2018-04-01T11:32:27.247Z,6.92
2018-04-01T11:34:54.211Z,6.93
2018-04-01T11:37:21.223Z,7.07
2018-04-01T11:39:48.164Z,7.56
2018-04-01T11:42:15.128Z,8.39
2018-04-01T11:44:42.166Z,9.35
2018-04-01T11:47:09.169Z,12.07
2018-04-01T11:49:36.140Z,11.81
2018-04-01T11:52:03.112Z,11.26
2018-04-01T11:54:30.087Z,11.46
2018-04-01T11:56:57.062Z,12.31
2018-04-01T11:59:24.044Z,12.06
2018-04-01T12:01:51.008Z,11.14
2018-04-01T12:04:17.963Z,10.96
2018-04-01T12:06:44.962Z,10.58
2018-04-01T12:09:11.975Z,9.75
2018-04-01T12:11:38.927Z,9.45
2018-04-01T12:14:05.900Z,9.18
2018-04-01T12:16:32.838Z,8.98
2018-04-01T12:18:59.809Z,8.97
2018-04-01T12:21:27.723Z,8.77
2018-04-01T12:23:54.694Z,8.75
2018-04-01T12:26:21.654Z,8.79
2018-04-01T12:28:48.620Z,8.97
2018-04-01T12:31:15.557Z,9.03
2018-04-01T12:33:42.515Z,9.05
2018-04-01T12:36:09.493Z,8.81
2018-04-01T12:38:36.464Z,8.74
2018-04-01T12:41:03.423Z,8.62
2018-04-01T12:43:30.490Z,8.57
2018-04-01T12:45:57.431Z,8.31
2018-04-01T12:48:24.394Z,7.06
2018-04-01T12:50:51.384Z,6.37
2018-04-01T12:53:18.430Z,6.06
2018-04-01T12:55:45.388Z,5.75
2018-04-01T12:58:12.364Z,5.84
2018-04-01T13:00:39.324Z,5.90
2018-04-01T13:03:06.346Z,6.43
2018-04-01T13:05:33.337Z,6.99
2018-04-01T13:08:00.331Z,7.12
2018-04-01T13:10:27.369Z,7.05
2018-04-01T13:12:54.358Z,6.84
2018-04-01T13:15:21.306Z,6.76
2018-04-01T13:17:48.280Z,6.73
2018-04-01T13:20:15.254Z,6.98
2018-04-01T13:22:42.204Z,7.48
2018-04-01T13:25:09.180Z,7.87
2018-04-01T13:27:36.119Z,8.17
2018-04-01T13:30:03.100Z,8.58
2018-04-01T13:32:30.052Z,8.70
2018-04-01T13:34:57.022Z,8.89
2018-04-01T13:37:24.010Z,9.04
2018-04-01T13:39:50.995Z,9.10
2018-04-01T13:42:17.948Z,9.40
2018-04-01T13:44:44.939Z,9.83
2018-04-01T13:47:11.901Z,9.74
2018-04-01T13:49:38.947Z,9.40
2018-04-01T13:52:05.908Z,9.43
2018-04-01T13:54:32.914Z,9.03
2018-04-01T13:56:59.863Z,8.92
2018-04-01T13:59:26.860Z,8.74
2018-04-01T14:01:53.864Z,8.67
2018-04-01T14:04:20.851Z,8.81
2018-04-01T14:06:47.973Z,8.89
2018-04-01T14:09:14.968Z,9.03
2018-04-01T14:11:41.934Z,9.62
2018-04-01T14:14:08.906Z,10.34
2018-04-01T14:16:35.878Z,10.62
2018-04-01T14:19:02.867Z,10.34
2018-04-01T14:21:29.817Z,10.42
2018-04-01T14:23:56.782Z,10.83
2018-04-01T14:26:23.788Z,10.58
2018-04-01T14:28:50.800Z,10.73
2018-04-01T14:31:17.803Z,11.04
2018-04-01T14:33:44.755Z,12.19
2018-04-01T14:36:11.738Z,12.63
2018-04-01T14:38:38.695Z,14.20
2018-04-01T14:41:05.671Z,17.57
2018-04-01T14:43:32.630Z,15.16
2018-04-01T14:45:59.621Z,13.16
2018-04-01T14:48:26.658Z,12.97
2018-04-01T14:50:53.627Z,12.71
2018-04-01T14:53:20.575Z,13.61
2018-04-01T14:55:47.588Z,16.39
2018-04-01T14:58:14.540Z,15.22
2018-04-01T15:00:41.518Z,14.07
2018-04-01T15:03:08.492Z,15.76
2018-04-01T15:05:35.471Z,15.33
2018-04-01T15:08:02.416Z,13.07
2018-04-01T15:10:29.425Z,11.85
2018-04-01T15:12:56.381Z,11.51
2018-04-01T15:15:24.219Z,12.61
2018-04-01T15:17:51.215Z,11.48
2018-04-01T15:20:18.339Z,11.45
2018-04-01T15:22:45.283Z,12.37
2018-04-01T15:25:12.275Z,14.34
2018-04-01T15:27:39.298Z,17.85
2018-04-01T15:30:06.270Z,17.81
2018-04-01T15:32:33.226Z,16.25
2018-04-01T15:35:00.195Z,13.77
2018-04-01T15:37:27.231Z,12.05
2018-04-01T15:39:54.187Z,11.60
2018-04-01T15:42:21.173Z,11.30
2018-04-01T15:44:48.163Z,11.05
2018-04-01T15:47:15.184Z,11.15
2018-04-01T15:49:42.139Z,11.41
2018-04-01T15:52:09.203Z,11.53
2018-04-01T15:54:36.212Z,11.61
2018-04-01T15:57:03.183Z,11.62
2018-04-01T15:59:30.148Z,11.62
2018-04-01T16:01:57.123Z,11.47
2018-04-01T16:04:24.221Z,11.20
2018-04-01T16:06:51.224Z,11.02
2018-04-01T16:09:18.175Z,10.69
2018-04-01T16:11:45.144Z,10.45
2018-04-01T16:14:12.183Z,10.37
2018-04-01T16:16:39.153Z,10.39
2018-04-01T16:19:06.216Z,10.31
2018-04-01T16:21:33.192Z,10.38
2018-04-01T16:24:00.175Z,10.31
2018-04-01T16:26:27.157Z,10.25
2018-04-01T16:28:54.114Z,10.16
2018-04-01T16:31:21.115Z,10.04
2018-04-01T16:33:48.067Z,9.94
2018-04-01T16:36:15.017Z,9.75
2018-04-01T16:38:42.184Z,9.64
2018-04-01T16:41:09.143Z,9.53
2018-04-01T16:43:36.132Z,9.47
2018-04-01T16:46:03.100Z,9.37
2018-04-01T16:48:30.072Z,9.34
2018-04-01T16:50:57.079Z,9.21
2018-04-01T16:53:24.043Z,9.11
2018-04-01T16:55:51.012Z,9.25
2018-04-01T16:58:18.026Z,9.93
2018-04-01T17:00:44.972Z,9.55
2018-04-01T17:03:11.944Z,9.22
2018-04-01T17:05:38.887Z,8.91
2018-04-01T17:08:05.847Z,8.73
2018-04-01T17:10:32.800Z,8.63
2018-04-01T17:12:59.780Z,8.50
2018-04-01T17:15:26.755Z,8.55
2018-04-01T17:17:53.714Z,8.54
2018-04-01T17:20:20.655Z,8.56
2018-04-01T17:22:47.688Z,8.57
2018-04-01T17:25:14.677Z,8.59
2018-04-01T17:27:41.644Z,8.57
2018-04-01T17:30:08.597Z,8.53
2018-04-01T17:32:35.592Z,8.47
2018-04-01T17:35:02.638Z,8.43
2018-04-01T17:37:29.583Z,8.31
2018-04-01T17:39:56.573Z,8.20
2018-04-01T17:42:24.526Z,8.07
2018-04-01T17:44:52.407Z,7.97
2018-04-01T17:47:19.351Z,7.91
2018-04-01T17:49:46.323Z,7.79
2018-04-01T17:52:13.270Z,7.62
2018-04-01T17:54:40.258Z,7.51
2018-04-01T17:57:07.256Z,7.41
2018-04-01T17:59:34.234Z,7.48
2018-04-01T18:02:01.183Z,7.36
2018-04-01T18:04:28.223Z,7.35
2018-04-01T18:06:55.201Z,7.33
2018-04-01T18:09:22.240Z,7.26
2018-04-01T18:11:49.198Z,7.31
2018-04-01T18:14:16.171Z,7.37
2018-04-01T18:16:43.124Z,7.30
2018-04-01T18:19:10.096Z,7.23
2018-04-01T18:21:37.052Z,7.18
2018-04-01T18:24:04.058Z,7.19
2018-04-01T18:26:31.022Z,7.20
2018-04-01T18:28:57.984Z,7.21
2018-04-01T18:31:24.923Z,7.17
2018-04-01T18:33:51.896Z,7.11
2018-04-01T18:36:18.860Z,7.08
2018-04-01T18:38:45.872Z,7.07
2018-04-01T18:41:12.823Z,7.04
2018-04-01T18:43:39.763Z,7.04
2018-04-01T18:46:06.735Z,7.06
2018-04-01T18:48:33.687Z,7.02
2018-04-01T18:51:00.681Z,7.00
2018-04-01T18:53:27.648Z,6.97
2018-04-01T18:55:54.616Z,6.94
2018-04-01T18:58:21.572Z,6.93
2018-04-01T19:00:48.604Z,6.93
2018-04-01T19:03:15.553Z,6.87
2018-04-01T19:05:42.523Z,6.79
2018-04-01T19:08:09.467Z,6.69
2018-04-01T19:10:36.444Z,6.65
2018-04-01T19:13:03.439Z,6.57
2018-04-01T19:15:30.454Z,6.52
2018-04-01T19:17:57.955Z,6.52
2018-04-01T19:20:25.463Z,6.41
2018-04-01T19:22:52.955Z,6.25
2018-04-01T19:25:20.514Z,6.06
2018-04-01T19:27:48.007Z,6.01
2018-04-01T19:30:15.511Z,5.83
2018-04-01T19:32:42.991Z,5.76
2018-04-01T19:35:10.502Z,5.70
2018-04-01T19:37:37.996Z,5.70
2018-04-01T19:40:05.533Z,5.52
2018-04-01T19:42:33.036Z,5.38
2018-04-01T19:45:00.567Z,5.17
2018-04-01T19:47:28.053Z,5.07
2018-04-01T19:49:55.583Z,4.97
2018-04-01T19:52:23.480Z,4.86
2018-04-01T19:54:50.980Z,4.79
2018-04-01T19:57:18.491Z,4.72
2018-04-01T19:59:46.001Z,4.67
2018-04-01T20:02:13.511Z,4.56
2018-04-01T20:04:41.024Z,4.49
2018-04-01T20:07:08.547Z,4.48
2018-04-01T20:09:36.044Z,4.51
2018-04-01T20:12:03.552Z,4.61
2018-04-01T20:14:31.052Z,4.61
2018-04-01T20:16:58.569Z,4.61
2018-04-01T20:19:26.065Z,4.59
2018-04-01T20:21:53.760Z,4.55
2018-04-01T20:24:21.272Z,4.51
2018-04-01T20:26:48.775Z,4.48
2018-04-01T20:29:16.267Z,4.44
2018-04-01T20:31:43.916Z,4.51
2018-04-01T20:34:11.700Z,4.43
2018-04-01T20:36:39.231Z,4.43
2018-04-01T20:39:06.764Z,4.40
2018-04-01T20:41:34.315Z,4.41
2018-04-01T20:44:01.840Z,4.44
2018-04-01T20:46:29.372Z,4.49
2018-04-01T20:48:56.885Z,4.41
2018-04-01T20:51:24.463Z,4.32
2018-04-01T20:53:51.924Z,4.23
2018-04-01T20:56:19.467Z,4.12
2018-04-01T20:58:46.949Z,3.98
2018-04-01T21:01:14.433Z,3.89
2018-04-01T21:03:41.945Z,3.91
2018-04-01T21:06:09.427Z,3.90
2018-04-01T21:08:36.947Z,3.96
2018-04-01T21:11:04.489Z,3.87
2018-04-01T21:13:32.007Z,3.81
2018-04-01T21:15:59.526Z,3.81
2018-04-01T21:18:27.055Z,3.68
2018-04-01T21:20:54.546Z,3.58
2018-04-01T21:23:22.088Z,3.50
2018-04-01T21:25:49.590Z,3.46
2018-04-01T21:28:17.145Z,3.42
2018-04-01T21:30:44.628Z,3.33
2018-04-01T21:33:12.149Z,3.35
2018-04-01T21:35:39.657Z,3.28
2018-04-01T21:38:07.170Z,3.27
2018-04-01T21:40:34.797Z,3.31
2018-04-01T21:43:02.325Z,3.32
2018-04-01T21:45:29.808Z,3.25
2018-04-01T21:47:57.324Z,3.20
2018-04-01T21:50:24.815Z,3.21
2018-04-01T21:52:52.328Z,3.15
2018-04-01T21:55:19.836Z,3.16
2018-04-01T21:57:47.392Z,3.10
2018-04-01T22:00:14.940Z,3.05
2018-04-01T22:02:42.468Z,2.97
2018-04-01T22:05:09.973Z,2.88
2018-04-01T22:07:37.536Z,2.83
2018-04-01T22:10:05.051Z,2.78
2018-04-01T22:12:32.562Z,2.84
2018-04-01T22:15:00.069Z,2.86
2018-04-01T22:17:27.555Z,2.80
2018-04-01T22:19:55.073Z,2.83
2018-04-01T22:22:22.555Z,2.88
2018-04-01T22:24:50.077Z,2.85
2018-04-01T22:27:17.572Z,2.83
2018-04-01T22:29:45.136Z,2.76
2018-04-01T22:32:12.623Z,2.71
2018-04-01T22:34:40.139Z,2.82
2018-04-01T22:37:07.630Z,2.87
2018-04-01T22:39:35.137Z,2.92
2018-04-01T22:42:02.619Z,2.87
2018-04-01T22:44:30.123Z,2.84
2018-04-01T22:46:57.627Z,2.72
2018-04-01T22:49:25.147Z,2.64
2018-04-01T22:51:52.646Z,2.64
2018-04-01T22:54:20.147Z,2.56
2018-04-01T22:56:47.658Z,2.48
2018-04-01T22:59:15.171Z,2.58
2018-04-01T23:01:42.651Z,2.59
2018-04-01T23:04:10.192Z,2.61
2018-04-01T23:06:37.680Z,2.61
2018-04-01T23:09:05.208Z,2.68
2018-04-01T23:11:32.692Z,2.58
2018-04-01T23:14:00.235Z,2.68
2018-04-01T23:16:27.741Z,2.59
2018-04-01T23:18:55.236Z,2.51
2018-04-01T23:21:22.788Z,2.42
2018-04-01T23:23:50.301Z,2.36
2018-04-01T23:26:17.807Z,2.38
2018-04-01T23:28:45.299Z,2.40
2018-04-01T23:31:12.815Z,2.40
2018-04-01T23:33:40.296Z,2.49
2018-04-01T23:36:07.805Z,2.61
2018-04-01T23:38:35.399Z,2.61
2018-04-01T23:41:02.911Z,2.60
2018-04-01T23:43:30.480Z,2.54
2018-04-01T23:45:58.050Z,2.51
2018-04-01T23:48:25.540Z,2.44
2018-04-01T23:50:53.046Z,2.48
2018-04-01T23:53:20.532Z,2.50
2018-04-01T23:55:48.071Z,2.44
2018-04-01T23:58:15.551Z,2.38
